Time;durP1;ratioP1;P1;durP2;ratioP2;P2;SDS_P1;SDS_P2;PMS_P1;PMS_P2;Temp;Humidity;BMP_temperature;BMP_pressure;BME280_temperature;BME280_humidity;BME280_pressure;Samples;Min_cycle;Max_cycle;Signal;HPM_P1;HPM_P2
2023/09/28 00:01:35;;;;;;;1.10;1.00;;;17.80;99.90;;;;;;7392342;19;20150;-86
2023/09/28 00:04:02;;;;;;;1.15;0.95;;;17.70;99.90;;;;;;7391644;19;20146;-85
2023/09/28 00:06:29;;;;;;;1.80;1.35;;;17.60;99.90;;;;;;7389563;19;20186;-86
2023/09/28 00:08:55;;;;;;;2.65;1.50;;;17.70;99.90;;;;;;7392297;19;20158;-86
2023/09/28 00:11:21;;;;;;;1.75;1.42;;;17.90;99.90;;;;;;7389297;19;20146;-86
2023/09/28 00:13:46;;;;;;;1.48;1.10;;;17.70;99.90;;;;;;7391389;19;20151;-86
2023/09/28 00:16:12;;;;;;;1.85;1.40;;;17.60;99.90;;;;;;7393641;19;20126;-85
2023/09/28 00:18:38;;;;;;;1.90;1.30;;;17.80;99.90;;;;;;7390984;19;20161;-86
2023/09/28 00:21:04;;;;;;;1.45;1.17;;;17.80;99.90;;;;;;7391773;19;20210;-86
2023/09/28 00:23:30;;;;;;;1.75;0.98;;;17.50;99.90;;;;;;7391252;19;20126;-87
2023/09/28 00:25:57;;;;;;;2.08;1.40;;;17.30;99.90;;;;;;7392274;19;20473;-87
2023/09/28 00:28:23;;;;;;;1.73;1.58;;;17.50;99.90;;;;;;7392117;19;20150;-86
2023/09/28 00:30:48;;;;;;;1.17;1.02;;;17.60;99.90;;;;;;7390068;19;20158;-86
2023/09/28 00:33:15;;;;;;;1.90;1.42;;;17.70;99.90;;;;;;7391710;19;20166;-86
2023/09/28 00:35:41;;;;;;;2.38;1.17;;;17.60;99.90;;;;;;7391293;19;20159;-86
2023/09/28 00:38:07;;;;;;;1.50;1.30;;;17.30;99.90;;;;;;7393798;19;20718;-85
2023/09/28 00:40:33;;;;;;;1.42;1.20;;;17.10;99.90;;;;;;7392027;19;20146;-86
2023/09/28 00:43:00;;;;;;;1.45;1.10;;;17.10;99.90;;;;;;7392029;19;20155;-86
2023/09/28 00:45:27;;;;;;;2.25;1.38;;;17.30;99.90;;;;;;7390584;19;20141;-85
2023/09/28 00:48:00;;;;;;;1.00;0.90;;;17.60;99.90;;;;;;7391832;19;20226;-86
2023/09/28 00:50:29;;;;;;;1.02;1.00;;;17.80;99.90;;;;;;7390440;19;20156;-85
2023/09/28 00:52:58;;;;;;;1.33;1.20;;;17.50;99.90;;;;;;7392529;19;20137;-86
2023/09/28 00:55:25;;;;;;;1.20;1.10;;;17.30;99.90;;;;;;7388337;19;20139;-86
2023/09/28 00:57:51;;;;;;;1.85;1.00;;;17.50;99.90;;;;;;7391352;19;20158;-86
2023/09/28 01:00:18;;;;;;;1.48;1.20;;;17.70;99.90;;;;;;7392276;19;20543;-86
2023/09/28 01:02:51;;;;;;;1.33;1.10;;;17.80;99.90;;;;;;7391186;19;20496;-85
2023/09/28 01:05:20;;;;;;;1.50;1.30;;;17.70;99.90;;;;;;7388993;19;20158;-85
2023/09/28 01:07:47;;;;;;;1.33;1.23;;;17.60;99.90;;;;;;7388211;19;20455;-84
2023/09/28 01:10:14;;;;;;;1.35;1.08;;;17.40;99.90;;;;;;7392127;19;20226;-86
2023/09/28 01:12:41;;;;;;;1.65;1.10;;;17.10;99.90;;;;;;7397373;19;20142;-85
2023/09/28 01:15:16;;;;;;;1.20;1.10;;;16.90;99.90;;;;;;7395829;19;20194;-85
2023/09/28 01:17:43;;;;;;;1.75;0.95;;;16.60;99.90;;;;;;7397577;19;20130;-86
2023/09/28 01:20:17;;;;;;;1.15;1.00;;;16.60;99.90;;;;;;7396273;19;20611;-86
2023/09/28 01:22:45;;;;;;;1.02;0.93;;;16.90;99.90;;;;;;7395418;19;20138;-84
2023/09/28 01:25:11;;;;;;;1.45;1.27;;;17.00;99.90;;;;;;7397353;19;20141;-86
2023/09/28 01:27:37;;;;;;;1.50;1.25;;;17.20;99.90;;;;;;7395359;19;20138;-85
2023/09/28 01:30:04;;;;;;;1.35;1.13;;;17.40;99.90;;;;;;7396608;19;20131;-86
2023/09/28 01:32:29;;;;;;;1.75;1.65;;;17.50;99.90;;;;;;7396675;19;20266;-86
2023/09/28 01:34:55;;;;;;;1.42;1.25;;;17.50;99.90;;;;;;7398386;19;20598;-85
2023/09/28 01:37:29;;;;;;;1.77;1.10;;;17.60;99.90;;;;;;7396461;19;20130;-85
2023/09/28 01:39:55;;;;;;;1.42;1.10;;;17.60;99.90;;;;;;7395826;19;20177;-86
2023/09/28 01:42:21;;;;;;;1.55;1.30;;;17.20;99.90;;;;;;7395219;19;20154;-85
2023/09/28 01:44:47;;;;;;;2.03;1.27;;;17.10;99.90;;;;;;7394730;19;20165;-84
2023/09/28 01:47:13;;;;;;;1.88;1.02;;;17.00;99.90;;;;;;7395761;19;20158;-85
2023/09/28 01:49:38;;;;;;;1.17;1.02;;;17.00;99.90;;;;;;7395833;19;20155;-85
2023/09/28 01:52:04;;;;;;;1.50;1.40;;;16.80;99.90;;;;;;7398555;19;20206;-87
2023/09/28 01:54:30;;;;;;;1.92;1.23;;;17.20;99.90;;;;;;7397062;19;21346;-85
2023/09/28 01:56:55;;;;;;;1.60;1.08;;;16.70;99.90;;;;;;7394507;19;20486;-85
2023/09/28 01:59:21;;;;;;;1.00;0.90;;;17.00;99.90;;;;;;7395850;19;20161;-85
2023/09/28 02:01:47;;;;;;;1.02;0.80;;;17.00;99.90;;;;;;7395189;19;20157;-86
2023/09/28 02:04:13;;;;;;;1.17;1.00;;;17.00;99.90;;;;;;7397619;19;20147;-87
2023/09/28 02:06:39;;;;;;;1.90;1.10;;;16.70;99.90;;;;;;7392823;19;20590;-85
2023/09/28 02:09:05;;;;;;;1.48;1.10;;;16.60;99.90;;;;;;7395055;19;20154;-86
2023/09/28 02:11:31;;;;;;;1.30;1.00;;;16.90;99.90;;;;;;7395257;19;20231;-86
2023/09/28 02:13:57;;;;;;;1.25;1.10;;;17.10;99.90;;;;;;7394635;19;20147;-86
2023/09/28 02:16:23;;;;;;;1.52;0.95;;;17.20;99.90;;;;;;7396962;19;20135;-85
2023/09/28 02:18:49;;;;;;;1.92;1.10;;;17.40;99.90;;;;;;7395700;19;20127;-86
2023/09/28 02:21:15;;;;;;;1.30;0.98;;;17.50;99.90;;;;;;7395339;19;20139;-86
2023/09/28 02:23:41;;;;;;;1.23;0.90;;;17.30;99.90;;;;;;7396421;19;20146;-86
2023/09/28 02:26:07;;;;;;;2.25;1.08;;;17.20;99.90;;;;;;7396964;19;20174;-84
2023/09/28 02:28:34;;;;;;;2.00;1.10;;;17.30;99.90;;;;;;7396488;19;20237;-85
2023/09/28 02:31:07;;;;;;;2.67;1.27;;;17.00;99.90;;;;;;7393511;19;20162;-85
2023/09/28 02:33:33;;;;;;;1.00;0.90;;;16.70;99.90;;;;;;7395034;19;20138;-85
2023/09/28 02:35:59;;;;;;;1.23;1.00;;;16.70;99.90;;;;;;7396360;19;20156;-85
2023/09/28 02:38:25;;;;;;;1.00;0.90;;;16.60;99.90;;;;;;7400271;19;20145;-85
2023/09/28 02:40:51;;;;;;;1.30;1.20;;;16.60;99.90;;;;;;7397592;19;20126;-85
2023/09/28 02:43:17;;;;;;;1.20;0.90;;;16.50;99.90;;;;;;7402001;19;20142;-85
2023/09/28 02:45:43;;;;;;;1.33;1.10;;;16.40;99.90;;;;;;7399571;19;20195;-85
2023/09/28 02:48:08;;;;;;;1.30;1.17;;;16.40;99.90;;;;;;7400232;19;20157;-85
2023/09/28 02:50:34;;;;;;;1.42;0.88;;;16.60;99.90;;;;;;7393258;19;20556;-86
2023/09/28 02:53:00;;;;;;;1.98;1.13;;;16.70;99.90;;;;;;7397378;19;20158;-84
2023/09/28 02:55:28;;;;;;;1.40;1.30;;;16.90;99.90;;;;;;7391159;19;20150;-86
2023/09/28 02:57:54;;;;;;;1.83;1.17;;;16.80;99.90;;;;;;7395540;19;20268;-84
2023/09/28 03:02:46;;;;;;;1.23;0.88;;;17.20;99.90;;;;;;7393195;19;20190;-85
2023/09/28 03:05:12;;;;;;;2.10;1.50;;;16.90;99.90;;;;;;7392274;19;20189;-85
2023/09/28 03:07:39;;;;;;;1.77;1.38;;;17.00;99.90;;;;;;7393086;19;20143;-84
2023/09/28 03:10:06;;;;;;;1.60;1.10;;;17.10;99.90;;;;;;7394367;19;20131;-85
2023/09/28 03:12:32;;;;;;;1.25;1.15;;;17.10;99.90;;;;;;7395688;19;20135;-85
2023/09/28 03:14:58;;;;;;;1.08;0.95;;;16.70;99.90;;;;;;7393826;19;20559;-85
2023/09/28 03:17:28;;;;;;;2.03;1.17;;;16.80;99.90;;;;;;7395018;19;20168;-86
2023/09/28 03:19:53;;;;;;;1.20;1.05;;;16.90;99.90;;;;;;7394030;19;20127;-84
2023/09/28 03:22:20;;;;;;;1.33;0.90;;;17.20;99.90;;;;;;7393729;19;20479;-85
2023/09/28 03:24:46;;;;;;;1.17;1.08;;;17.20;99.90;;;;;;7392815;19;20134;-86
2023/09/28 03:27:12;;;;;;;1.42;1.15;;;17.50;99.90;;;;;;7393645;19;20214;-84
2023/09/28 03:29:38;;;;;;;1.33;1.23;;;17.40;99.90;;;;;;7393726;19;20165;-85
2023/09/28 03:32:04;;;;;;;1.48;1.38;;;17.30;99.90;;;;;;7391854;19;20134;-86
2023/09/28 03:34:29;;;;;;;1.55;0.95;;;17.30;99.90;;;;;;7392319;19;20138;-86
2023/09/28 03:36:55;;;;;;;1.35;1.10;;;17.00;99.90;;;;;;7392101;19;20127;-86
2023/09/28 03:39:21;;;;;;;0.77;0.77;;;17.10;99.90;;;;;;7394147;19;20127;-86
2023/09/28 03:41:47;;;;;;;1.48;1.10;;;17.10;99.90;;;;;;7393144;19;20600;-85
2023/09/28 03:44:13;;;;;;;1.92;1.40;;;17.20;99.90;;;;;;7392134;19;20126;-87
2023/09/28 03:46:39;;;;;;;1.83;1.30;;;17.20;99.90;;;;;;7393818;19;20190;-85
2023/09/28 03:49:06;;;;;;;1.52;0.98;;;17.00;99.90;;;;;;7393512;19;20151;-87
2023/09/28 03:51:32;;;;;;;1.45;1.08;;;16.50;99.90;;;;;;7393740;19;20859;-87
2023/09/28 03:53:58;;;;;;;1.75;1.02;;;16.60;99.90;;;;;;7393309;19;20134;-87
2023/09/28 03:56:24;;;;;;;1.95;1.30;;;16.90;99.90;;;;;;7393273;19;20143;-85
2023/09/28 03:58:49;;;;;;;1.83;1.40;;;17.00;99.90;;;;;;7392075;19;20455;-85
2023/09/28 04:01:15;;;;;;;1.15;1.05;;;16.80;99.90;;;;;;7392331;19;20145;-85
2023/09/28 04:03:41;;;;;;;1.02;0.93;;;16.90;99.90;;;;;;7392358;19;20158;-86
2023/09/28 04:06:08;;;;;;;1.52;1.33;;;17.00;99.90;;;;;;7389771;19;20175;-85
2023/09/28 04:08:34;;;;;;;1.65;1.20;;;17.10;99.90;;;;;;7392584;19;20202;-86
2023/09/28 04:10:59;;;;;;;1.42;1.00;;;17.10;99.90;;;;;;7388705;19;20201;-85
2023/09/28 04:13:26;;;;;;;1.63;1.13;;;17.10;99.90;;;;;;7392044;19;20498;-85
2023/09/28 04:15:52;;;;;;;2.83;1.35;;;17.20;99.90;;;;;;7391072;19;20507;-84
2023/09/28 04:18:17;;;;;;;1.27;1.08;;;17.30;99.90;;;;;;7391922;19;20146;-85
2023/09/28 04:20:43;;;;;;;1.00;1.00;;;17.30;99.90;;;;;;7392209;19;20130;-85
2023/09/28 04:23:09;;;;;;;1.27;1.17;;;17.30;99.90;;;;;;7390504;19;20146;-85
2023/09/28 04:25:35;;;;;;;1.35;1.05;;;17.30;99.90;;;;;;7392778;19;20133;-86
2023/09/28 04:28:02;;;;;;;1.45;1.35;;;17.20;99.90;;;;;;7390946;19;20919;-84
2023/09/28 04:30:27;;;;;;;1.90;1.30;;;16.90;99.90;;;;;;7388028;19;20230;-85
2023/09/28 04:32:54;;;;;;;1.20;1.00;;;17.00;99.90;;;;;;7391016;19;20150;-86
2023/09/28 04:35:20;;;;;;;1.20;1.08;;;17.10;99.90;;;;;;7389785;19;20170;-86
2023/09/28 04:37:47;;;;;;;1.40;1.08;;;17.00;99.90;;;;;;7394473;19;20143;-84
2023/09/28 04:40:13;;;;;;;1.92;1.40;;;16.90;99.90;;;;;;7389900;19;20308;-85
2023/09/28 04:42:40;;;;;;;1.45;1.27;;;17.00;99.90;;;;;;7391535;19;20161;-86
2023/09/28 04:45:06;;;;;;;2.00;1.40;;;16.80;99.90;;;;;;7399429;19;20151;-86
2023/09/28 04:47:32;;;;;;;1.60;1.20;;;16.80;99.90;;;;;;7397282;19;20151;-86
2023/09/28 04:49:59;;;;;;;1.20;1.10;;;17.00;99.90;;;;;;7396053;19;20143;-86
2023/09/28 04:52:25;;;;;;;1.33;1.20;;;17.20;99.90;;;;;;7398002;19;20175;-85
2023/09/28 04:54:52;;;;;;;1.70;1.60;;;17.30;99.90;;;;;;7395634;19;20154;-85
2023/09/28 04:57:20;;;;;;;2.17;1.30;;;17.20;99.90;;;;;;7397958;19;20157;-86
2023/09/28 04:59:46;;;;;;;2.05;1.58;;;17.00;99.90;;;;;;7398087;19;20158;-86
2023/09/28 05:02:11;;;;;;;1.48;1.20;;;17.10;99.90;;;;;;7399932;19;20149;-88
2023/09/28 05:04:37;;;;;;;1.83;1.30;;;17.10;99.90;;;;;;7395736;19;20654;-85
2023/09/28 05:07:04;;;;;;;2.25;1.50;;;17.10;99.90;;;;;;7398866;19;20134;-86
2023/09/28 05:09:30;;;;;;;1.50;1.25;;;17.20;99.90;;;;;;7395884;19;20178;-86
2023/09/28 05:11:59;;;;;;;1.55;1.33;;;17.20;99.90;;;;;;7397576;19;20143;-87
2023/09/28 05:14:28;;;;;;;1.27;1.00;;;17.00;99.90;;;;;;7398417;19;20484;-86
2023/09/28 05:16:54;;;;;;;1.88;1.63;;;16.60;99.90;;;;;;7397028;19;20144;-87
2023/09/28 05:19:21;;;;;;;2.92;1.65;;;16.70;99.90;;;;;;7397763;19;20171;-87
2023/09/28 05:21:47;;;;;;;1.55;1.45;;;16.90;99.90;;;;;;7396370;19;20762;-86
2023/09/28 05:24:13;;;;;;;1.35;1.20;;;17.00;99.90;;;;;;7396555;19;20591;-87
2023/09/28 05:26:39;;;;;;;1.45;1.23;;;16.70;99.90;;;;;;7396221;19;20151;-86
2023/09/28 05:29:05;;;;;;;1.60;1.20;;;16.90;99.90;;;;;;7395725;19;20147;-88
2023/09/28 05:31:31;;;;;;;2.10;1.10;;;17.00;99.90;;;;;;7394498;19;20153;-87
2023/09/28 05:33:57;;;;;;;2.13;1.38;;;17.00;99.90;;;;;;7397085;19;20142;-87
2023/09/28 05:36:22;;;;;;;2.42;1.40;;;16.90;99.90;;;;;;7396340;19;20123;-85
2023/09/28 05:38:48;;;;;;;2.00;1.30;;;17.00;99.90;;;;;;7397752;19;20596;-85
2023/09/28 05:41:14;;;;;;;1.95;1.52;;;17.00;99.90;;;;;;7395380;19;20239;-83
2023/09/28 05:43:40;;;;;;;2.22;1.42;;;17.10;99.90;;;;;;7395375;19;20167;-85
2023/09/28 05:46:06;;;;;;;1.75;1.25;;;17.10;99.90;;;;;;7396318;19;20135;-84
2023/09/28 05:48:32;;;;;;;1.10;1.00;;;17.10;99.90;;;;;;7397426;19;21499;-85
2023/09/28 05:50:58;;;;;;;2.15;1.23;;;17.00;99.90;;;;;;7395722;19;20148;-87
2023/09/28 05:53:23;;;;;;;1.27;1.15;;;17.20;99.90;;;;;;7395999;19;20174;-85
2023/09/28 05:55:52;;;;;;;1.70;1.35;;;17.20;99.90;;;;;;7394396;19;20138;-86
2023/09/28 05:58:19;;;;;;;2.13;1.35;;;17.30;99.90;;;;;;7396326;19;20138;-86
2023/09/28 06:00:45;;;;;;;2.75;1.40;;;17.30;99.90;;;;;;7395553;19;20142;-86
2023/09/28 06:03:15;;;;;;;1.58;1.30;;;17.20;99.90;;;;;;7398690;19;20203;-89
2023/09/28 06:05:42;;;;;;;2.05;1.42;;;17.30;99.90;;;;;;7397430;19;20193;-89
2023/09/28 06:08:07;;;;;;;1.42;1.23;;;17.30;99.90;;;;;;7396195;19;20583;-88
2023/09/28 06:10:33;;;;;;;2.33;1.42;;;17.30;99.90;;;;;;7394518;19;20151;-90
2023/09/28 06:13:01;;;;;;;1.67;1.40;;;17.40;99.90;;;;;;7395747;19;20146;-88
2023/09/28 06:15:30;;;;;;;1.77;1.30;;;17.40;99.90;;;;;;7398604;19;20216;-89
2023/09/28 06:17:56;;;;;;;2.25;1.55;;;17.40;99.90;;;;;;7397684;19;20139;-84
2023/09/28 06:20:22;;;;;;;1.90;1.60;;;17.80;99.90;;;;;;7397269;19;20150;-85
2023/09/28 06:22:47;;;;;;;1.73;1.40;;;17.60;99.90;;;;;;7395409;19;20690;-86
2023/09/28 06:25:13;;;;;;;1.92;1.50;;;17.60;99.90;;;;;;7395267;19;20151;-83
2023/09/28 06:27:41;;;;;;;1.42;1.20;;;17.50;99.90;;;;;;7394646;19;20143;-86
2023/09/28 06:30:10;;;;;;;1.70;1.38;;;17.50;99.90;;;;;;7397868;19;20599;-94
2023/09/28 06:32:36;;;;;;;2.00;1.50;;;17.60;99.90;;;;;;7398261;19;20225;-94
2023/09/28 06:35:01;;;;;;;1.83;1.20;;;17.60;99.90;;;;;;7399174;19;20130;-90
2023/09/28 06:37:30;;;;;;;3.72;1.33;;;17.50;99.90;;;;;;7397775;19;20927;-90
2023/09/28 06:39:56;;;;;;;1.55;1.13;;;17.80;99.90;;;;;;7396707;19;20156;-92
2023/09/28 06:42:22;;;;;;;1.10;0.93;;;17.60;99.90;;;;;;7397162;19;20150;-83
2023/09/28 06:44:48;;;;;;;1.58;1.20;;;17.70;99.90;;;;;;7391037;19;20149;-83
2023/09/28 06:47:14;;;;;;;1.65;1.45;;;17.70;99.90;;;;;;7395572;19;20147;-85
2023/09/28 06:49:39;;;;;;;2.88;1.60;;;17.80;99.90;;;;;;7399555;19;20138;-84
2023/09/28 06:52:10;;;;;;;1.65;1.30;;;17.90;99.90;;;;;;7396120;19;20505;-85
2023/09/28 06:54:38;;;;;;;2.55;1.38;;;17.90;99.90;;;;;;7394819;19;20512;-86
2023/09/28 06:57:04;;;;;;;1.63;1.35;;;18.00;99.90;;;;;;7395272;19;20170;-85
2023/09/28 06:59:32;;;;;;;3.22;1.50;;;17.90;99.90;;;;;;7395237;19;20499;-85
2023/09/28 07:01:58;;;;;;;2.13;1.65;;;17.70;99.90;;;;;;7395952;19;20487;-84
2023/09/28 07:04:29;;;;;;;1.90;1.45;;;17.80;99.90;;;;;;7395107;19;20169;-84
2023/09/28 07:06:55;;;;;;;1.70;1.40;;;17.80;99.90;;;;;;7393291;19;20498;-83
2023/09/28 07:09:21;;;;;;;1.27;1.05;;;17.80;99.90;;;;;;7394537;19;20202;-82
2023/09/28 07:11:47;;;;;;;1.52;1.30;;;17.80;99.90;;;;;;7394445;19;20161;-83
2023/09/28 07:14:13;;;;;;;2.30;1.55;;;17.90;99.90;;;;;;7395164;19;20577;-84
2023/09/28 07:16:39;;;;;;;1.55;1.33;;;17.90;99.90;;;;;;7395413;19;20130;-83
2023/09/28 07:19:05;;;;;;;1.27;1.17;;;18.00;99.90;;;;;;7394302;19;20151;-84
2023/09/28 07:21:31;;;;;;;1.60;1.23;;;18.10;99.90;;;;;;7395144;19;20139;-81
2023/09/28 07:23:56;;;;;;;1.90;1.40;;;18.30;99.90;;;;;;7391054;19;20214;-85
2023/09/28 07:26:22;;;;;;;1.67;1.40;;;18.20;99.90;;;;;;7393139;19;20151;-83
2023/09/28 07:28:48;;;;;;;2.08;1.35;;;18.20;99.90;;;;;;7393057;19;20146;-83
2023/09/28 07:31:15;;;;;;;2.67;1.48;;;18.30;99.90;;;;;;7391834;19;20154;-83
2023/09/28 07:33:41;;;;;;;1.73;1.25;;;18.30;99.90;;;;;;7393144;19;20166;-82
2023/09/28 07:36:07;;;;;;;1.48;1.13;;;18.30;99.90;;;;;;7392497;19;20158;-82
2023/09/28 07:38:33;;;;;;;1.48;1.10;;;18.30;99.90;;;;;;7394321;19;20150;-84
2023/09/28 07:41:00;;;;;;;1.73;1.50;;;18.40;99.90;;;;;;7393523;19;20135;-82
2023/09/28 07:43:26;;;;;;;1.90;1.55;;;18.20;99.90;;;;;;7392717;19;20964;-82
2023/09/28 07:45:52;;;;;;;1.98;1.55;;;18.20;99.90;;;;;;7394204;19;20162;-85
2023/09/28 07:48:17;;;;;;;2.50;1.50;;;18.20;99.90;;;;;;7398573;19;20146;-91
2023/09/28 07:50:47;;;;;;;1.52;1.42;;;18.20;99.90;;;;;;7399967;19;20222;-94
2023/09/28 07:53:19;;;;;;;2.72;1.60;;;18.30;99.90;;;;;;7411994;19;20168;-91
2023/09/28 07:55:45;;;;;;;2.45;1.60;;;18.30;99.90;;;;;;7404159;19;20135;-94
2023/09/28 07:58:15;;;;;;;2.70;1.67;;;18.30;99.90;;;;;;7407525;19;20611;-95
2023/09/28 08:00:43;;;;;;;1.30;1.10;;;18.40;99.90;;;;;;7410712;19;20151;-92
2023/09/28 08:03:34;;;;;;;1.60;1.50;;;18.40;99.90;;;;;;7414680;19;20169;-95
2023/09/28 08:06:01;;;;;;;2.17;1.55;;;18.40;99.90;;;;;;7408286;19;20635;-94
2023/09/28 08:08:49;;;;;;;3.10;1.60;;;18.40;99.90;;;;;;7410837;19;20143;-96
2023/09/28 08:11:18;;;;;;;1.73;1.50;;;18.40;99.90;;;;;;7404304;19;20169;-94
2023/09/28 08:13:50;;;;;;;2.50;1.50;;;18.50;99.90;;;;;;7414251;19;20157;-92
2023/09/28 08:16:19;;;;;;;1.23;1.13;;;18.60;99.90;;;;;;7409235;19;20150;-94
2023/09/28 08:18:46;;;;;;;2.72;1.50;;;18.70;99.90;;;;;;7407090;19;20151;-93
2023/09/28 08:21:12;;;;;;;1.63;1.10;;;18.70;99.90;;;;;;7408738;19;20542;-92
2023/09/28 08:23:38;;;;;;;2.33;1.30;;;18.70;99.90;;;;;;7406930;19;20154;-90
2023/09/28 08:26:04;;;;;;;1.40;1.27;;;18.80;99.90;;;;;;7408256;19;20159;-90
2023/09/28 08:28:30;;;;;;;1.60;1.27;;;19.00;99.90;;;;;;7395995;19;20143;-89
2023/09/28 08:31:02;;;;;;;1.63;1.50;;;19.10;99.90;;;;;;7391703;19;20146;-89
2023/09/28 08:33:28;;;;;;;2.33;1.25;;;19.10;99.90;;;;;;7399470;19;20138;-93
2023/09/28 08:35:54;;;;;;;1.88;1.40;;;19.20;99.90;;;;;;7397425;19;20234;-91
2023/09/28 08:38:20;;;;;;;1.48;1.23;;;19.20;99.90;;;;;;7395265;19;20210;-86
2023/09/28 08:40:48;;;;;;;2.00;1.30;;;19.20;99.90;;;;;;7396287;19;20134;-82
2023/09/28 08:43:17;;;;;;;1.30;1.05;;;19.30;99.90;;;;;;7390949;19;20146;-84
2023/09/28 08:45:44;;;;;;;2.40;1.60;;;19.30;99.90;;;;;;7389407;19;20131;-84
2023/09/28 08:48:11;;;;;;;3.38;1.73;;;19.40;99.90;;;;;;7391468;19;20142;-84
2023/09/28 08:50:40;;;;;;;2.72;1.65;;;19.60;99.90;;;;;;7387024;19;20176;-83
2023/09/28 08:53:06;;;;;;;1.52;1.17;;;19.80;99.90;;;;;;7390396;19;20621;-84
2023/09/28 08:55:38;;;;;;;1.35;1.15;;;20.00;99.90;;;;;;7388724;19;20134;-84
2023/09/28 08:58:05;;;;;;;1.92;1.17;;;20.10;99.90;;;;;;7389610;19;20150;-83
2023/09/28 09:00:31;;;;;;;1.83;1.55;;;20.20;99.90;;;;;;7390240;19;20142;-84
2023/09/28 09:03:00;;;;;;;2.08;1.73;;;20.30;99.90;;;;;;7390616;19;20146;-83
2023/09/28 09:05:29;;;;;;;1.25;1.02;;;20.40;99.90;;;;;;7387911;19;20237;-83
2023/09/28 09:07:56;;;;;;;1.90;1.30;;;20.50;99.90;;;;;;7390874;19;20127;-84
2023/09/28 09:10:26;;;;;;;1.77;1.42;;;20.60;99.90;;;;;;7389069;19;20173;-84
2023/09/28 09:12:52;;;;;;;3.47;1.65;;;20.70;99.90;;;;;;7391243;19;20563;-83
2023/09/28 09:15:19;;;;;;;2.10;1.35;;;20.90;99.90;;;;;;7395822;19;20141;-83
2023/09/28 09:17:45;;;;;;;2.65;1.55;;;21.00;99.90;;;;;;7390542;19;20146;-84
2023/09/28 09:20:11;;;;;;;2.20;1.35;;;21.10;99.90;;;;;;7391511;19;20182;-83
2023/09/28 09:22:37;;;;;;;2.17;1.27;;;21.20;99.90;;;;;;7388531;19;20676;-83
2023/09/28 09:25:03;;;;;;;2.70;1.60;;;21.20;99.90;;;;;;7389605;19;20174;-82
2023/09/28 09:27:33;;;;;;;1.58;1.48;;;21.30;99.90;;;;;;7388447;19;20212;-84
2023/09/28 09:30:08;;;;;;;1.50;1.40;;;21.50;99.90;;;;;;7388697;19;20433;-83
2023/09/28 09:32:35;;;;;;;1.85;1.10;;;21.60;99.90;;;;;;7395907;19;20158;-84
2023/09/28 09:35:03;;;;;;;1.52;1.42;;;21.60;99.90;;;;;;7396417;19;20127;-83
2023/09/28 09:37:29;;;;;;;2.08;1.30;;;21.60;99.90;;;;;;7394894;19;20198;-84
2023/09/28 09:40:10;;;;;;;2.13;1.40;;;21.60;99.90;;;;;;7395255;19;20159;-83
2023/09/28 09:42:36;;;;;;;1.65;1.48;;;21.80;99.90;;;;;;7394951;19;20167;-83
2023/09/28 09:45:04;;;;;;;1.40;1.20;;;21.90;99.90;;;;;;7394824;19;20150;-83
2023/09/28 09:47:29;;;;;;;1.92;1.23;;;22.00;99.90;;;;;;7396429;19;20146;-83
2023/09/28 09:49:56;;;;;;;1.30;1.20;;;22.00;99.90;;;;;;7396229;19;20146;-84
2023/09/28 09:52:24;;;;;;;2.40;1.67;;;22.00;99.90;;;;;;7395332;19;20150;-84
2023/09/28 09:54:50;;;;;;;2.13;1.63;;;22.10;99.90;;;;;;7394828;19;20138;-84
2023/09/28 09:57:18;;;;;;;3.85;1.60;;;22.20;99.90;;;;;;7396705;19;20162;-84
2023/09/28 09:59:46;;;;;;;1.65;1.30;;;22.30;99.90;;;;;;7395314;19;20145;-83
2023/09/28 10:02:24;;;;;;;2.63;1.70;;;22.30;99.90;;;;;;7395663;19;20170;-84
2023/09/28 10:04:54;;;;;;;1.88;1.20;;;22.50;99.90;;;;;;7395190;19;20619;-84
2023/09/28 10:07:33;;;;;;;2.75;1.45;;;22.50;99.90;;;;;;7394806;19;20154;-84
2023/09/28 10:09:59;;;;;;;3.00;1.30;;;22.60;99.90;;;;;;7394237;19;20150;-85
2023/09/28 10:12:29;;;;;;;1.83;1.35;;;22.70;99.90;;;;;;7397986;19;20142;-85
2023/09/28 10:14:58;;;;;;;2.53;1.42;;;22.60;99.90;;;;;;7403896;19;20155;-83
2023/09/28 10:17:28;;;;;;;1.40;1.20;;;22.70;99.90;;;;;;7402182;19;20219;-85
2023/09/28 10:19:59;;;;;;;2.25;1.42;;;22.90;99.90;;;;;;7397911;19;20155;-85
2023/09/28 10:22:25;;;;;;;1.52;0.98;;;22.90;99.90;;;;;;7396020;19;20149;-84
2023/09/28 10:24:51;;;;;;;1.35;1.15;;;23.00;99.90;;;;;;7395596;19;20480;-84
2023/09/28 10:27:17;;;;;;;1.25;1.10;;;23.00;99.90;;;;;;7395875;19;20127;-84
2023/09/28 10:29:43;;;;;;;2.25;1.42;;;23.10;99.90;;;;;;7393042;19;20241;-85
2023/09/28 10:32:28;;;;;;;2.58;0.98;;;23.20;99.90;;;;;;7393710;19;20146;-85
2023/09/28 10:35:19;;;;;;;1.98;1.10;;;23.30;99.90;;;;;;7394762;19;20131;-84
2023/09/28 10:38:17;;;;;;;1.58;0.98;;;23.30;99.90;;;;;;7395181;19;20150;-83
2023/09/28 10:41:00;;;;;;;1.98;1.30;;;23.30;99.90;;;;;;7393934;19;20180;-85
2023/09/28 10:43:40;;;;;;;2.25;1.60;;;23.30;99.90;;;;;;7396101;19;20209;-84
2023/09/28 10:46:07;;;;;;;2.35;1.50;;;23.30;99.90;;;;;;7394873;19;20242;-85
2023/09/28 10:48:44;;;;;;;1.48;1.25;;;23.30;99.90;;;;;;7394148;19;20157;-84
2023/09/28 10:51:15;;;;;;;1.67;1.25;;;23.30;99.90;;;;;;7399736;19;20130;-85
2023/09/28 10:53:42;;;;;;;1.30;0.80;;;23.40;99.90;;;;;;7405635;19;20162;-84
2023/09/28 10:56:08;;;;;;;2.45;1.70;;;23.50;99.90;;;;;;7398599;19;20469;-85
2023/09/28 10:58:35;;;;;;;2.17;1.20;;;23.50;99.90;;;;;;7396786;19;20146;-84
2023/09/28 11:01:06;;;;;;;2.78;1.98;;;23.50;99.90;;;;;;7397373;19;20138;-85
2023/09/28 11:03:32;;;;;;;1.83;1.20;;;23.60;99.90;;;;;;7394357;19;20142;-85
2023/09/28 11:05:59;;;;;;;2.22;1.20;;;23.70;99.90;;;;;;7392127;19;20827;-84
2023/09/28 11:08:25;;;;;;;2.33;1.55;;;23.70;99.90;;;;;;7394463;19;20184;-84
2023/09/28 11:10:55;;;;;;;2.15;1.40;;;23.70;99.90;;;;;;7392594;19;20158;-84
2023/09/28 11:13:21;;;;;;;2.53;1.50;;;23.80;99.90;;;;;;7393998;19;20562;-85
2023/09/28 11:15:49;;;;;;;2.00;1.33;;;23.90;99.90;;;;;;7392512;19;20138;-84
2023/09/28 11:18:15;;;;;;;1.60;1.00;;;24.00;99.90;;;;;;7394220;19;20142;-83
2023/09/28 11:20:42;;;;;;;1.58;1.20;;;24.00;99.90;;;;;;7393305;19;20142;-84
2023/09/28 11:23:11;;;;;;;1.42;1.20;;;24.00;99.90;;;;;;7394119;19;20150;-84
2023/09/28 11:25:39;;;;;;;1.30;1.00;;;24.10;99.90;;;;;;7394604;19;20203;-83
2023/09/28 11:28:07;;;;;;;1.52;1.10;;;24.00;99.90;;;;;;7393695;19;20249;-82
2023/09/28 11:30:32;;;;;;;1.35;1.02;;;24.10;99.90;;;;;;7395550;19;20142;-84
2023/09/28 11:33:02;;;;;;;1.42;1.05;;;24.10;99.90;;;;;;7394880;19;20162;-85
2023/09/28 11:35:31;;;;;;;1.73;0.73;;;24.20;99.90;;;;;;7396169;19;20244;-84
2023/09/28 11:38:10;;;;;;;3.35;1.17;;;24.20;99.90;;;;;;7395462;19;20169;-84
2023/09/28 11:40:37;;;;;;;1.77;1.10;;;24.30;99.90;;;;;;7394207;19;20221;-84
2023/09/28 11:43:04;;;;;;;1.17;0.80;;;24.40;99.90;;;;;;7393310;19;20257;-84
2023/09/28 11:45:36;;;;;;;2.33;0.90;;;24.50;99.90;;;;;;7401000;19;20136;-83
2023/09/28 11:48:11;;;;;;;1.33;1.15;;;24.60;99.90;;;;;;7399690;19;20483;-85
2023/09/28 11:50:40;;;;;;;1.63;1.10;;;24.70;99.90;;;;;;7399897;19;20170;-84
2023/09/28 11:53:09;;;;;;;1.90;1.20;;;24.70;99.90;;;;;;7398023;19;20135;-84
2023/09/28 11:55:38;;;;;;;2.13;1.48;;;24.70;99.90;;;;;;7397123;19;20176;-83
2023/09/28 11:58:09;;;;;;;1.45;1.20;;;24.70;99.30;;;;;;7398550;19;20501;-83
2023/09/28 12:00:38;;;;;;;1.17;1.02;;;24.80;99.80;;;;;;7399191;19;20588;-84
2023/09/28 12:03:05;;;;;;;1.05;0.80;;;24.80;98.80;;;;;;7399378;19;20242;-84
2023/09/28 12:05:31;;;;;;;0.60;0.60;;;24.80;98.20;;;;;;7397042;19;20175;-83
2023/09/28 12:07:58;;;;;;;1.52;0.80;;;24.90;98.60;;;;;;7398120;19;20150;-83
2023/09/28 12:10:23;;;;;;;1.88;1.35;;;24.90;99.10;;;;;;7392053;19;20165;-84
2023/09/28 12:12:49;;;;;;;1.73;1.10;;;25.00;98.60;;;;;;7401330;19;20138;-83
2023/09/28 12:15:16;;;;;;;1.88;1.10;;;25.10;98.60;;;;;;7396921;19;20150;-84
2023/09/28 12:17:42;;;;;;;0.85;0.82;;;25.20;98.00;;;;;;7393176;19;20142;-83
2023/09/28 12:20:12;;;;;;;0.80;0.80;;;25.30;97.00;;;;;;7395857;19;20162;-83
2023/09/28 12:22:39;;;;;;;0.90;0.80;;;25.30;97.20;;;;;;7393231;19;20152;-83
2023/09/28 12:25:06;;;;;;;1.85;0.93;;;25.30;97.70;;;;;;7391758;19;20486;-83
2023/09/28 12:27:32;;;;;;;0.88;0.70;;;25.20;99.30;;;;;;7396668;19;20130;-83
2023/09/28 12:29:59;;;;;;;1.58;1.00;;;25.20;97.40;;;;;;7394301;19;20170;-83
2023/09/28 12:32:29;;;;;;;2.03;1.00;;;25.30;97.20;;;;;;7390414;19;20202;-83
2023/09/28 12:34:59;;;;;;;1.10;0.80;;;25.30;97.10;;;;;;7392861;19;20139;-84
2023/09/28 12:37:25;;;;;;;1.50;1.00;;;25.30;96.80;;;;;;7390849;19;20226;-85
2023/09/28 12:39:53;;;;;;;1.17;0.90;;;25.40;96.80;;;;;;7393108;19;20150;-84
2023/09/28 12:42:26;;;;;;;0.98;0.88;;;25.50;96.00;;;;;;7391244;19;20586;-84
2023/09/28 12:44:51;;;;;;;0.80;0.70;;;25.50;96.00;;;;;;7391743;19;20134;-84
2023/09/28 12:47:21;;;;;;;1.15;1.05;;;25.50;96.90;;;;;;7390781;19;20173;-85
2023/09/28 12:49:47;;;;;;;1.40;1.05;;;25.60;95.50;;;;;;7392899;19;20143;-85
2023/09/28 12:52:13;;;;;;;1.15;0.88;;;25.60;95.30;;;;;;7392106;19;20150;-84